createdAt,value
2022-10-24T00:01:18.897Z,73.74
2022-10-24T00:03:47.464Z,74.51
2022-10-24T00:06:14.834Z,72.98
2022-10-24T00:08:42.700Z,72.37
2022-10-24T00:11:15.235Z,76.44
2022-10-24T00:13:42.789Z,74.36
2022-10-24T00:16:10.678Z,74.63
2022-10-24T00:18:38.033Z,77.15
2022-10-24T00:21:05.564Z,78.49
2022-10-24T00:23:33.164Z,77.44
2022-10-24T00:26:02.050Z,72.53
2022-10-24T00:28:30.594Z,76.16
2022-10-24T00:30:58.194Z,73.09
2022-10-24T00:33:25.595Z,75.87
2022-10-24T00:35:52.917Z,73.26
2022-10-24T00:38:20.848Z,73.59
2022-10-24T00:40:48.150Z,78.51
2022-10-24T00:43:20.774Z,78.69
2022-10-24T00:45:58.701Z,75.61
2022-10-24T00:48:37.994Z,74.38
2022-10-24T00:51:14.532Z,72.92
2022-10-24T00:53:44.841Z,73.60
2022-10-24T00:56:12.695Z,74.12
2022-10-24T00:58:40.122Z,73.13
2022-10-24T01:01:09.130Z,73.92
2022-10-24T01:03:36.846Z,73.56
2022-10-24T01:06:22.343Z,74.83
2022-10-24T01:09:00.121Z,75.72
2022-10-24T01:11:40.198Z,75.63
2022-10-24T01:14:13.619Z,76.85
2022-10-24T01:16:43.676Z,75.77
2022-10-24T01:19:20.365Z,77.75
2022-10-24T01:21:49.178Z,75.12
2022-10-24T01:24:37.828Z,73.73
2022-10-24T01:29:48.309Z,74.46
2022-10-24T01:32:50.913Z,75.56
2022-10-24T01:35:26.335Z,73.49
2022-10-24T01:37:55.552Z,72.92
2022-10-24T01:40:46.057Z,71.21
2022-10-24T01:43:14.036Z,73.22
2022-10-24T01:45:43.705Z,77.87
2022-10-24T01:48:14.299Z,74.64
2022-10-24T01:50:42.040Z,73.59
2022-10-24T01:53:09.432Z,73.01
2022-10-24T01:55:36.777Z,77.24
2022-10-24T01:58:04.378Z,75.73
2022-10-24T02:00:31.778Z,78.64
2022-10-24T02:03:01.997Z,78.70
2022-10-24T02:05:32.530Z,78.14
2022-10-24T02:08:06.346Z,74.40
2022-10-24T02:10:36.215Z,76.80
2022-10-24T02:13:06.002Z,78.38
2022-10-24T02:15:37.303Z,76.42
2022-10-24T02:18:04.693Z,74.67
2022-10-24T02:20:43.273Z,73.10
2022-10-24T02:23:17.012Z,73.56
2022-10-24T02:28:20.426Z,73.02
2022-10-24T02:30:56.438Z,76.30
2022-10-24T02:33:24.021Z,73.62
2022-10-24T02:35:52.612Z,73.28
2022-10-24T02:38:26.823Z,71.85
2022-10-24T02:40:54.737Z,72.38
2022-10-24T02:43:22.307Z,74.07
2022-10-24T02:45:50.846Z,72.53
2022-10-24T02:48:19.631Z,71.83
2022-10-24T02:50:47.119Z,71.46
2022-10-24T02:53:16.033Z,70.45
2022-10-24T02:55:43.635Z,70.12
2022-10-24T02:58:10.970Z,79.08
2022-10-24T03:00:38.371Z,79.28
2022-10-24T03:03:05.992Z,72.75
2022-10-24T03:05:33.313Z,72.01
2022-10-24T03:08:00.662Z,73.18
2022-10-24T03:10:28.211Z,75.61
2022-10-24T03:12:55.519Z,75.08
2022-10-24T03:15:22.877Z,74.96
2022-10-24T03:17:50.471Z,73.49
2022-10-24T03:20:17.882Z,79.64
2022-10-24T03:22:45.232Z,80.00
2022-10-24T03:25:12.847Z,76.56
2022-10-24T03:27:40.215Z,73.46
2022-10-24T03:30:07.947Z,80.26
2022-10-24T03:32:35.541Z,75.60
2022-10-24T03:35:02.894Z,77.44
2022-10-24T03:37:30.224Z,74.24
2022-10-24T03:39:57.856Z,79.43
2022-10-24T03:42:25.181Z,78.62
2022-10-24T03:44:52.844Z,76.93
2022-10-24T03:47:20.461Z,76.93
2022-10-24T03:49:47.822Z,76.97
2022-10-24T03:52:15.166Z,75.46
2022-10-24T03:54:42.820Z,76.58
2022-10-24T03:57:10.218Z,77.52
2022-10-24T03:59:37.655Z,77.96
2022-10-24T04:02:05.837Z,75.11
2022-10-24T04:04:33.512Z,73.50
2022-10-24T04:07:00.930Z,73.05
2022-10-24T04:09:28.326Z,75.02
2022-10-24T04:11:55.939Z,72.04
2022-10-24T04:14:23.279Z,73.49
2022-10-24T04:16:50.584Z,74.08
2022-10-24T04:19:18.480Z,76.19
2022-10-24T04:21:47.833Z,78.07
2022-10-24T04:24:15.327Z,73.87
2022-10-24T04:26:43.101Z,74.69
2022-10-24T04:29:10.406Z,75.16
2022-10-24T04:31:37.727Z,74.92
2022-10-24T04:34:06.216Z,74.64
2022-10-24T04:36:34.052Z,72.78
2022-10-24T04:41:33.961Z,71.89
2022-10-24T04:44:01.271Z,74.33
2022-10-24T04:46:28.596Z,76.30
2022-10-24T04:48:56.174Z,78.01
2022-10-24T04:51:23.464Z,77.73
2022-10-24T04:53:51.314Z,77.60
2022-10-24T04:56:19.154Z,80.14
2022-10-24T04:58:46.464Z,77.95
2022-10-24T05:01:13.845Z,83.05
2022-10-24T05:03:41.476Z,79.42
2022-10-24T05:06:08.772Z,77.06
2022-10-24T05:08:36.373Z,76.44
2022-10-24T05:11:04.004Z,76.11
2022-10-24T05:13:34.335Z,76.19
2022-10-24T05:16:05.141Z,79.47
2022-10-24T05:18:32.671Z,80.11
2022-10-24T05:21:00.198Z,77.34
2022-10-24T05:23:27.854Z,78.99
2022-10-24T05:25:55.202Z,77.79
2022-10-24T05:28:22.677Z,76.52
2022-10-24T05:30:50.311Z,74.95
2022-10-24T05:33:17.638Z,75.96
2022-10-24T05:35:44.990Z,77.03
2022-10-24T05:38:12.558Z,74.62
2022-10-24T05:40:39.920Z,73.71
2022-10-24T05:43:07.239Z,74.42
2022-10-24T05:45:34.919Z,74.23
2022-10-24T05:48:02.272Z,73.18
2022-10-24T05:50:30.123Z,71.99
2022-10-24T05:52:57.792Z,70.96
2022-10-24T05:55:25.148Z,72.40
2022-10-24T05:57:52.675Z,70.57
2022-10-24T06:00:20.320Z,71.99
2022-10-24T06:02:47.939Z,71.95
2022-10-24T06:05:18.208Z,72.67
2022-10-24T06:07:47.217Z,74.72
2022-10-24T06:10:15.664Z,80.87
2022-10-24T06:12:43.342Z,76.41
2022-10-24T06:15:12.246Z,76.15
2022-10-24T06:17:39.901Z,73.60
2022-10-24T06:20:07.802Z,77.56
2022-10-24T06:22:35.139Z,75.53
2022-10-24T06:25:02.757Z,73.90
2022-10-24T06:27:30.119Z,76.67
2022-10-24T06:29:57.534Z,74.29
2022-10-24T06:32:25.092Z,75.21
2022-10-24T06:34:52.423Z,75.56
2022-10-24T06:37:21.774Z,74.70
2022-10-24T06:39:49.385Z,73.43
2022-10-24T06:42:16.689Z,73.15
2022-10-24T06:44:44.024Z,72.36
2022-10-24T06:47:11.600Z,76.69
2022-10-24T06:49:39.156Z,75.21
2022-10-24T06:52:06.473Z,72.91
2022-10-24T06:54:35.171Z,77.11
2022-10-24T06:57:02.568Z,79.57
2022-10-24T06:59:30.027Z,75.47
2022-10-24T07:02:01.728Z,80.34
2022-10-24T07:04:32.413Z,76.08
2022-10-24T07:07:00.091Z,77.25
2022-10-24T07:09:29.459Z,76.23
2022-10-24T07:11:56.812Z,75.55
2022-10-24T07:14:25.861Z,76.56
2022-10-24T07:16:53.560Z,74.23
2022-10-24T07:19:20.918Z,75.93
2022-10-24T07:21:48.526Z,75.42
2022-10-24T07:24:15.894Z,74.59
2022-10-24T07:26:43.285Z,75.74
2022-10-24T07:29:10.946Z,74.02
2022-10-24T07:31:38.263Z,76.40
2022-10-24T07:34:06.674Z,75.23
2022-10-24T07:36:34.341Z,74.31
2022-10-24T07:39:01.790Z,76.54
2022-10-24T07:41:30.127Z,72.43
2022-10-24T07:43:58.765Z,80.07
2022-10-24T07:46:26.206Z,79.34
2022-10-24T07:48:53.614Z,76.92
2022-10-24T07:51:21.385Z,75.86
2022-10-24T07:53:48.858Z,75.26
2022-10-24T07:56:16.805Z,74.33
2022-10-24T07:58:44.535Z,76.27
2022-10-24T08:01:16.735Z,74.14
2022-10-24T08:03:44.650Z,74.76
2022-10-24T08:06:17.120Z,76.68
2022-10-24T08:08:44.817Z,79.87
2022-10-24T08:11:21.854Z,78.55
2022-10-24T08:13:50.200Z,75.30
2022-10-24T08:16:18.180Z,76.27
2022-10-24T08:18:45.581Z,81.09
2022-10-24T08:21:14.065Z,78.65
2022-10-24T08:23:43.137Z,78.53
2022-10-24T08:26:12.957Z,76.35
2022-10-24T08:28:40.880Z,74.77
2022-10-24T08:31:11.159Z,75.04
2022-10-24T08:33:38.599Z,73.58
2022-10-24T08:36:28.212Z,73.23
2022-10-24T08:38:55.583Z,72.07
2022-10-24T08:41:26.080Z,77.65
2022-10-24T08:43:53.725Z,75.44
2022-10-24T08:46:44.258Z,76.62
2022-10-24T08:49:19.600Z,77.54
2022-10-24T08:52:04.246Z,75.53
2022-10-24T08:54:36.966Z,76.54
2022-10-24T08:57:04.663Z,75.85
2022-10-24T08:59:33.562Z,77.08
2022-10-24T09:02:05.527Z,75.40
2022-10-24T09:04:40.845Z,73.17
2022-10-24T09:07:14.118Z,70.98
2022-10-24T09:09:45.906Z,73.76
2022-10-24T09:12:17.662Z,71.51
2022-10-24T09:14:47.053Z,70.87
2022-10-24T09:20:01.163Z,69.86
2022-10-24T09:22:30.589Z,70.63
2022-10-24T09:25:02.049Z,71.72
2022-10-24T09:27:31.164Z,71.59
2022-10-24T09:29:58.934Z,71.11
2022-10-24T09:32:32.642Z,70.42
2022-10-24T09:35:01.636Z,71.63
2022-10-24T09:37:44.331Z,70.11
2022-10-24T09:40:23.653Z,71.11
2022-10-24T09:43:13.466Z,70.63
2022-10-24T09:45:49.699Z,70.25
2022-10-24T09:48:29.246Z,77.19
2022-10-24T09:50:58.331Z,77.07
2022-10-24T09:53:28.615Z,77.46
2022-10-24T09:56:08.100Z,78.57
2022-10-24T09:58:35.737Z,81.06
2022-10-24T10:01:22.821Z,77.14
2022-10-24T10:04:06.122Z,76.72
2022-10-24T10:06:36.086Z,76.91
2022-10-24T10:09:03.912Z,78.95
2022-10-24T10:11:35.273Z,78.42
2022-10-24T10:14:05.259Z,76.55
2022-10-24T10:16:38.644Z,77.37
2022-10-24T10:19:19.645Z,77.55
2022-10-24T10:21:57.946Z,77.03
2022-10-24T10:24:38.590Z,74.64
2022-10-24T10:27:24.258Z,73.51
2022-10-24T10:30:10.350Z,72.48
2022-10-24T10:32:55.754Z,73.09
2022-10-24T10:35:32.136Z,72.02
2022-10-24T10:38:19.967Z,69.13
2022-10-24T10:40:54.091Z,68.07
2022-10-24T10:43:56.400Z,69.00
2022-10-24T10:46:37.172Z,71.45
2022-10-24T10:49:39.829Z,69.58
2022-10-24T10:52:36.057Z,69.07
2022-10-24T10:55:09.231Z,67.72
2022-10-24T10:57:49.372Z,68.78
2022-10-24T11:00:35.241Z,66.88
2022-10-24T11:03:06.340Z,66.29
2022-10-24T11:05:53.437Z,64.47
2022-10-24T11:08:39.877Z,62.62
2022-10-24T11:11:08.150Z,63.59
2022-10-24T11:14:20.602Z,63.16
2022-10-24T11:16:48.155Z,62.55
2022-10-24T11:19:48.074Z,66.30
2022-10-24T11:22:26.524Z,70.89
2022-10-24T11:25:03.783Z,66.99
2022-10-24T11:27:42.059Z,65.40
2022-10-24T11:30:17.283Z,64.93
2022-10-24T11:32:55.070Z,64.14
2022-10-24T11:35:33.151Z,63.66
2022-10-24T11:38:17.364Z,63.89
2022-10-24T11:40:46.083Z,63.43
2022-10-24T11:43:19.631Z,66.58
2022-10-24T11:45:56.021Z,64.35
2022-10-24T11:48:29.356Z,64.65
2022-10-24T11:51:10.170Z,67.28
2022-10-24T11:53:39.357Z,65.68
2022-10-24T11:56:19.102Z,63.93
2022-10-24T11:58:49.582Z,62.91
2022-10-24T12:01:39.971Z,62.13
2022-10-24T12:04:41.757Z,62.26
2022-10-24T12:07:39.984Z,61.24
2022-10-24T12:10:16.931Z,60.82
2022-10-24T12:12:56.872Z,61.65
2022-10-24T12:15:57.134Z,61.86
2022-10-24T12:18:30.782Z,61.80
2022-10-24T12:21:03.517Z,61.88
2022-10-24T12:23:31.636Z,62.60
2022-10-24T12:26:14.473Z,61.73
2022-10-24T12:28:41.835Z,60.97
2022-10-24T12:31:22.254Z,61.59
2022-10-24T12:34:15.163Z,61.22
2022-10-24T12:37:12.017Z,61.31
2022-10-24T12:39:51.045Z,61.02
2022-10-24T12:42:19.973Z,60.55
2022-10-24T12:44:51.007Z,60.98
2022-10-24T12:47:40.237Z,60.34
2022-10-24T12:50:23.193Z,60.70
2022-10-24T12:53:29.504Z,59.90
2022-10-24T12:55:56.932Z,59.17
2022-10-24T12:58:44.573Z,60.02
2022-10-24T13:01:24.313Z,59.81
2022-10-24T13:03:53.381Z,59.96
2022-10-24T13:06:35.844Z,59.49
2022-10-24T13:09:38.422Z,59.56
2022-10-24T13:12:43.425Z,59.16
2022-10-24T13:15:45.532Z,60.22
2022-10-24T13:18:25.574Z,60.30
2022-10-24T13:21:12.659Z,60.04
2022-10-24T13:23:46.705Z,59.98
2022-10-24T13:26:40.073Z,61.65
2022-10-24T13:29:23.553Z,61.32
2022-10-24T13:31:51.563Z,61.37
2022-10-24T13:34:19.717Z,61.38
2022-10-24T13:36:58.221Z,61.01
2022-10-24T13:39:27.952Z,61.33
2022-10-24T13:42:01.346Z,61.62
2022-10-24T13:44:45.302Z,61.81
2022-10-24T13:47:15.474Z,61.42
2022-10-24T13:50:21.334Z,62.02
2022-10-24T13:52:54.827Z,60.89
2022-10-24T13:55:25.394Z,60.88
2022-10-24T13:58:15.392Z,61.19
2022-10-24T14:00:45.069Z,62.75
2022-10-24T14:03:17.553Z,62.26
2022-10-24T14:05:52.433Z,62.10
2022-10-24T14:08:31.361Z,61.35
2022-10-24T14:11:00.753Z,62.06
2022-10-24T14:13:29.647Z,63.84
2022-10-24T14:15:58.753Z,62.58
2022-10-24T14:18:26.184Z,63.27
2022-10-24T14:20:55.794Z,63.33
2022-10-24T14:23:29.754Z,63.48
2022-10-24T14:26:00.013Z,63.25
2022-10-24T14:28:31.847Z,63.34
2022-10-24T14:31:04.620Z,64.42
2022-10-24T14:33:33.341Z,65.50
2022-10-24T14:36:02.008Z,64.42
2022-10-24T14:38:29.335Z,64.19
2022-10-24T14:41:08.268Z,64.41
2022-10-24T14:43:39.923Z,65.74
2022-10-24T14:46:07.432Z,64.73
2022-10-24T14:48:35.327Z,65.41
2022-10-24T14:51:09.354Z,65.03
2022-10-24T14:53:37.561Z,65.08
2022-10-24T14:56:06.850Z,65.02
2022-10-24T14:58:34.370Z,65.53
2022-10-24T15:01:01.824Z,65.80
2022-10-24T15:03:29.486Z,65.67
2022-10-24T15:06:12.401Z,66.52
2022-10-24T15:11:17.534Z,65.35
2022-10-24T15:13:48.159Z,65.18
2022-10-24T15:16:26.430Z,65.43
2022-10-24T15:18:55.707Z,66.72
2022-10-24T15:21:25.342Z,66.13
2022-10-24T15:23:57.266Z,65.69
2022-10-24T15:26:46.225Z,65.64
2022-10-24T15:29:13.376Z,65.84
2022-10-24T15:31:43.087Z,66.46
2022-10-24T15:34:20.017Z,65.73
2022-10-24T15:36:48.321Z,65.56
2022-10-24T15:39:20.393Z,65.56
2022-10-24T15:41:48.231Z,65.74
2022-10-24T15:44:18.258Z,65.54
2022-10-24T15:46:45.698Z,65.26
2022-10-24T15:49:13.296Z,65.98
2022-10-24T15:51:44.573Z,66.48
2022-10-24T15:54:16.749Z,66.22
2022-10-24T15:56:44.050Z,66.49
2022-10-24T15:59:11.381Z,66.90
2022-10-24T16:01:44.783Z,66.39
2022-10-24T16:04:12.436Z,66.37
2022-10-24T16:06:39.854Z,66.38
2022-10-24T16:09:10.640Z,66.00
2022-10-24T16:11:38.222Z,65.31
2022-10-24T16:14:05.729Z,65.90
2022-10-24T16:16:33.043Z,67.10
2022-10-24T16:19:00.648Z,68.26
2022-10-24T16:21:27.956Z,68.37
2022-10-24T16:23:55.571Z,67.09
2022-10-24T16:26:23.207Z,70.24
2022-10-24T16:28:50.513Z,69.40
2022-10-24T16:31:23.548Z,68.26
2022-10-24T16:33:51.428Z,68.02
2022-10-24T16:36:20.900Z,68.14
2022-10-24T16:38:51.478Z,68.43
2022-10-24T16:41:20.718Z,68.38
2022-10-24T16:43:49.880Z,70.43
2022-10-24T16:46:20.105Z,70.22
2022-10-24T16:48:47.645Z,69.00
2022-10-24T16:51:17.142Z,68.89
2022-10-24T16:53:44.721Z,68.72
2022-10-24T16:56:12.670Z,68.14
2022-10-24T16:58:40.005Z,68.34
2022-10-24T17:01:09.606Z,67.51
2022-10-24T17:03:37.336Z,66.96
2022-10-24T17:06:04.952Z,68.49
2022-10-24T17:08:32.583Z,68.26
2022-10-24T17:11:00.826Z,68.30
2022-10-24T17:13:28.305Z,69.04
2022-10-24T17:15:56.519Z,68.77
2022-10-24T17:18:25.437Z,67.93
2022-10-24T17:20:58.822Z,70.85
2022-10-24T17:23:26.767Z,69.94
2022-10-24T17:25:54.507Z,69.52
2022-10-24T17:28:21.916Z,69.16
2022-10-24T17:30:49.619Z,67.60
2022-10-24T17:33:17.065Z,67.82
2022-10-24T17:35:50.895Z,68.83
2022-10-24T17:38:53.013Z,68.51
2022-10-24T17:41:23.086Z,68.22
2022-10-24T17:43:50.986Z,68.40
2022-10-24T17:46:18.656Z,68.04
2022-10-24T17:48:45.962Z,68.07
2022-10-24T17:51:15.768Z,70.94
2022-10-24T17:53:43.077Z,68.58
2022-10-24T17:58:42.955Z,68.88
2022-10-24T18:01:11.239Z,68.08
2022-10-24T18:03:38.998Z,68.56
2022-10-24T18:06:06.842Z,69.64
2022-10-24T18:08:34.191Z,69.29
2022-10-24T18:11:02.985Z,69.16
2022-10-24T18:13:30.395Z,70.61
2022-10-24T18:15:57.710Z,70.83
2022-10-24T18:18:25.268Z,71.03
2022-10-24T18:20:53.156Z,70.17
2022-10-24T18:23:20.483Z,71.15
2022-10-24T18:25:48.073Z,70.52
2022-10-24T18:28:15.491Z,70.53
2022-10-24T18:30:42.801Z,75.26
2022-10-24T18:33:10.409Z,71.86
2022-10-24T18:35:37.774Z,72.26
2022-10-24T18:38:05.174Z,72.64
2022-10-24T18:40:35.113Z,73.91
2022-10-24T18:43:05.126Z,72.68
2022-10-24T18:45:33.487Z,71.44
2022-10-24T18:48:01.122Z,71.04
2022-10-24T18:50:28.918Z,70.52
2022-10-24T18:53:03.568Z,71.33
2022-10-24T18:55:31.198Z,73.35
2022-10-24T18:57:58.967Z,72.26
2022-10-24T19:00:30.992Z,71.21
2022-10-24T19:03:23.789Z,72.79
2022-10-24T19:06:06.322Z,71.86
2022-10-24T19:08:33.940Z,73.39
2022-10-24T19:11:01.521Z,73.55
2022-10-24T19:13:28.927Z,71.94
2022-10-24T19:16:05.921Z,71.41
2022-10-24T19:18:34.329Z,71.59
2022-10-24T19:21:01.967Z,71.05
2022-10-24T19:23:29.304Z,70.77
2022-10-24T19:25:56.660Z,71.61
2022-10-24T19:28:24.251Z,71.16
2022-10-24T19:30:51.585Z,70.53
2022-10-24T19:33:19.057Z,74.90
2022-10-24T19:35:49.525Z,71.86
2022-10-24T19:38:17.192Z,71.15
2022-10-24T19:40:48.261Z,71.11
2022-10-24T19:43:15.873Z,70.32
2022-10-24T19:45:50.652Z,70.53
2022-10-24T19:48:30.798Z,70.19
2022-10-24T19:51:05.535Z,70.30
2022-10-24T19:53:36.185Z,70.55
2022-10-24T19:56:07.816Z,70.62
2022-10-24T19:58:35.430Z,70.12
2022-10-24T20:01:13.620Z,70.15
2022-10-24T20:03:42.925Z,70.94
2022-10-24T20:06:10.724Z,70.28
2022-10-24T20:08:38.080Z,70.57
2022-10-24T20:11:05.794Z,70.87
2022-10-24T20:13:33.200Z,70.69
2022-10-24T20:16:05.497Z,70.75
2022-10-24T20:18:34.533Z,69.86
2022-10-24T20:21:04.117Z,70.36
2022-10-24T20:23:31.724Z,70.43
2022-10-24T20:26:01.633Z,71.16
2022-10-24T20:28:29.047Z,70.25
2022-10-24T20:30:56.370Z,70.55
2022-10-24T20:33:23.949Z,71.35
2022-10-24T20:35:51.274Z,69.96
2022-10-24T20:38:18.841Z,70.95
2022-10-24T20:40:46.422Z,70.53
2022-10-24T20:43:13.777Z,71.00
2022-10-24T20:45:41.100Z,70.25
2022-10-24T20:48:08.786Z,70.95
2022-10-24T20:50:36.261Z,70.84
2022-10-24T20:53:03.608Z,71.04
2022-10-24T20:55:43.726Z,70.88
2022-10-24T20:58:13.445Z,72.41
2022-10-24T21:03:15.105Z,73.55
2022-10-24T21:05:42.727Z,72.14
2022-10-24T21:08:10.123Z,73.61
2022-10-24T21:10:37.453Z,71.69
2022-10-24T21:13:05.036Z,71.08
2022-10-24T21:15:32.361Z,70.19
2022-10-24T21:17:59.913Z,70.61
2022-10-24T21:20:27.627Z,71.55
2022-10-24T21:22:54.936Z,70.87
2022-10-24T21:25:22.251Z,70.26
2022-10-24T21:27:49.968Z,70.22
2022-10-24T21:30:17.410Z,70.45
2022-10-24T21:32:44.723Z,70.54
2022-10-24T21:35:12.294Z,70.14
2022-10-24T21:37:39.617Z,69.90
2022-10-24T21:40:07.402Z,68.99
2022-10-24T21:42:34.993Z,68.63
2022-10-24T21:45:02.312Z,68.31
2022-10-24T21:47:29.665Z,68.79
2022-10-24T21:49:57.244Z,68.60
2022-10-24T21:52:24.578Z,67.74
2022-10-24T21:54:51.900Z,68.49
2022-10-24T21:57:19.512Z,68.61
2022-10-24T21:59:46.825Z,69.29
2022-10-24T22:02:14.306Z,71.39
2022-10-24T22:04:41.954Z,70.86
2022-10-24T22:07:09.259Z,70.28
2022-10-24T22:09:36.572Z,69.53
2022-10-24T22:12:04.567Z,70.88
2022-10-24T22:14:31.901Z,70.01
2022-10-24T22:16:59.238Z,69.97
2022-10-24T22:19:26.804Z,70.33
2022-10-24T22:21:54.262Z,70.38
2022-10-24T22:24:22.715Z,70.39
2022-10-24T22:26:50.407Z,73.17
2022-10-24T22:29:19.853Z,70.78
2022-10-24T22:31:47.452Z,70.25
2022-10-24T22:34:16.207Z,70.22
2022-10-24T22:37:00.797Z,69.67
2022-10-24T22:39:28.680Z,70.43
2022-10-24T22:41:56.129Z,71.65
2022-10-24T22:44:23.799Z,71.08
2022-10-24T22:47:15.665Z,74.23
2022-10-24T22:50:13.986Z,71.90
2022-10-24T22:52:41.801Z,72.52
2022-10-24T22:55:39.973Z,71.52
2022-10-24T22:58:07.852Z,70.99
2022-10-24T23:00:35.468Z,69.80
2022-10-24T23:03:27.919Z,70.08
2022-10-24T23:06:04.304Z,70.00
2022-10-24T23:08:35.866Z,70.38
2022-10-24T23:11:03.762Z,69.82
2022-10-24T23:13:31.362Z,68.32
2022-10-24T23:16:04.222Z,74.69
2022-10-24T23:18:31.949Z,72.92
2022-10-24T23:21:30.830Z,72.98
2022-10-24T23:23:58.586Z,74.50
2022-10-24T23:27:14.905Z,73.40
2022-10-24T23:29:43.916Z,72.66
2022-10-24T23:32:34.080Z,71.85
2022-10-24T23:35:01.896Z,71.07
2022-10-24T23:37:42.511Z,71.08
2022-10-24T23:40:18.860Z,71.18
2022-10-24T23:42:47.218Z,71.10
2022-10-24T23:45:20.469Z,70.46
2022-10-24T23:48:25.308Z,69.47
2022-10-24T23:51:09.647Z,70.68
2022-10-24T23:53:50.046Z,69.79
2022-10-24T23:56:19.046Z,74.15
2022-10-24T23:58:46.362Z,75.93
